RJTK(METAR)
02/28 07:00
METAR RJTK 272200Z 03008KT 340V050 9999 FEW020 SCT200 04/M02 Q1026
RMK 1CU020 3CI200 A3030=
戻る
トップページへ戻る
IMOC Co,.Ltd.